sensor_id;sensor_type;location;lat;lon;timestamp;pressure;altitude;pressure_sealevel;temperature
15680;BMP180;15488;48.114;11.532;2023-07-24T00:01:04;94863.00;;;27.30
15680;BMP180;15488;48.114;11.532;2023-07-24T00:03:31;94861.00;;;27.20
15680;BMP180;15488;48.114;11.532;2023-07-24T00:05:59;94855.00;;;27.20
15680;BMP180;15488;48.114;11.532;2023-07-24T00:08:27;94851.00;;;27.20
15680;BMP180;15488;48.114;11.532;2023-07-24T00:10:55;94846.00;;;27.20
15680;BMP180;15488;48.114;11.532;2023-07-24T00:13:23;94847.00;;;27.20
15680;BMP180;15488;48.114;11.532;2023-07-24T00:15:50;94839.00;;;27.20
15680;BMP180;15488;48.114;11.532;2023-07-24T00:18:18;94841.00;;;27.10
15680;BMP180;15488;48.114;11.532;2023-07-24T00:20:45;94833.00;;;27.10
15680;BMP180;15488;48.114;11.532;2023-07-24T00:23:13;94829.00;;;27.10
15680;BMP180;15488;48.114;11.532;2023-07-24T00:25:42;94820.00;;;27.10
15680;BMP180;15488;48.114;11.532;2023-07-24T00:28:09;94813.00;;;27.10
15680;BMP180;15488;48.114;11.532;2023-07-24T00:30:37;94816.00;;;27.10
15680;BMP180;15488;48.114;11.532;2023-07-24T00:33:04;94815.00;;;27.10
15680;BMP180;15488;48.114;11.532;2023-07-24T00:35:32;94809.00;;;27.10
15680;BMP180;15488;48.114;11.532;2023-07-24T00:37:59;94805.00;;;27.00
15680;BMP180;15488;48.114;11.532;2023-07-24T00:40:27;94798.00;;;27.00
15680;BMP180;15488;48.114;11.532;2023-07-24T00:42:55;94722.00;;;27.00
15680;BMP180;15488;48.114;11.532;2023-07-24T00:45:23;94795.00;;;27.00
15680;BMP180;15488;48.114;11.532;2023-07-24T00:47:51;94791.00;;;27.00
15680;BMP180;15488;48.114;11.532;2023-07-24T00:50:19;94791.00;;;27.00
15680;BMP180;15488;48.114;11.532;2023-07-24T00:52:47;94790.00;;;27.00
15680;BMP180;15488;48.114;11.532;2023-07-24T00:55:15;94793.00;;;27.00
15680;BMP180;15488;48.114;11.532;2023-07-24T00:57:44;94793.00;;;27.00
15680;BMP180;15488;48.114;11.532;2023-07-24T01:00:13;94790.00;;;27.00
15680;BMP180;15488;48.114;11.532;2023-07-24T01:02:41;94795.00;;;27.00
15680;BMP180;15488;48.114;11.532;2023-07-24T01:05:12;94794.00;;;27.00
15680;BMP180;15488;48.114;11.532;2023-07-24T01:07:40;94791.00;;;27.00
15680;BMP180;15488;48.114;11.532;2023-07-24T01:10:09;94783.00;;;26.90
15680;BMP180;15488;48.114;11.532;2023-07-24T01:12:39;94781.00;;;26.90
15680;BMP180;15488;48.114;11.532;2023-07-24T01:15:14;94774.00;;;26.90
15680;BMP180;15488;48.114;11.532;2023-07-24T01:17:48;94775.00;;;26.90
15680;BMP180;15488;48.114;11.532;2023-07-24T01:20:18;94785.00;;;26.90
15680;BMP180;15488;48.114;11.532;2023-07-24T01:22:57;94782.00;;;26.90
15680;BMP180;15488;48.114;11.532;2023-07-24T01:25:33;94765.00;;;26.90
15680;BMP180;15488;48.114;11.532;2023-07-24T01:28:07;94764.00;;;26.90
15680;BMP180;15488;48.114;11.532;2023-07-24T01:30:34;94768.00;;;26.90
15680;BMP180;15488;48.114;11.532;2023-07-24T01:33:02;94762.00;;;26.80
15680;BMP180;15488;48.114;11.532;2023-07-24T01:35:31;94753.00;;;26.80
15680;BMP180;15488;48.114;11.532;2023-07-24T01:38:00;94749.00;;;26.80
15680;BMP180;15488;48.114;11.532;2023-07-24T01:40:28;94737.00;;;26.80
15680;BMP180;15488;48.114;11.532;2023-07-24T01:42:56;94738.00;;;26.80
15680;BMP180;15488;48.114;11.532;2023-07-24T01:45:27;94737.00;;;26.70
15680;BMP180;15488;48.114;11.532;2023-07-24T01:47:54;94741.00;;;26.70
15680;BMP180;15488;48.114;11.532;2023-07-24T01:50:21;94736.00;;;26.70
15680;BMP180;15488;48.114;11.532;2023-07-24T01:52:49;94746.00;;;26.70
15680;BMP180;15488;48.114;11.532;2023-07-24T01:55:17;94757.00;;;26.70
15680;BMP180;15488;48.114;11.532;2023-07-24T01:57:44;94757.00;;;26.70
15680;BMP180;15488;48.114;11.532;2023-07-24T02:00:12;94754.00;;;26.70
15680;BMP180;15488;48.114;11.532;2023-07-24T02:02:41;94753.00;;;26.70
15680;BMP180;15488;48.114;11.532;2023-07-24T02:05:09;94749.00;;;26.60
15680;BMP180;15488;48.114;11.532;2023-07-24T02:07:36;94759.00;;;26.60
15680;BMP180;15488;48.114;11.532;2023-07-24T02:10:05;94769.00;;;26.60
15680;BMP180;15488;48.114;11.532;2023-07-24T02:12:32;94770.00;;;26.60
15680;BMP180;15488;48.114;11.532;2023-07-24T02:15:00;94781.00;;;26.60
15680;BMP180;15488;48.114;11.532;2023-07-24T02:17:27;94772.00;;;26.60
15680;BMP180;15488;48.114;11.532;2023-07-24T02:19:56;94775.00;;;26.60
15680;BMP180;15488;48.114;11.532;2023-07-24T02:22:23;94766.00;;;26.60
15680;BMP180;15488;48.114;11.532;2023-07-24T02:24:51;94770.00;;;26.60
15680;BMP180;15488;48.114;11.532;2023-07-24T02:27:26;94767.00;;;26.50
15680;BMP180;15488;48.114;11.532;2023-07-24T02:29:54;94765.00;;;26.60
15680;BMP180;15488;48.114;11.532;2023-07-24T02:32:21;94776.00;;;26.50
15680;BMP180;15488;48.114;11.532;2023-07-24T02:34:49;94834.00;;;26.50
15680;BMP180;15488;48.114;11.532;2023-07-24T02:37:19;94873.00;;;26.50
15680;BMP180;15488;48.114;11.532;2023-07-24T02:39:46;94851.00;;;26.50
15680;BMP180;15488;48.114;11.532;2023-07-24T02:42:14;94829.00;;;26.50
15680;BMP180;15488;48.114;11.532;2023-07-24T02:44:41;94818.00;;;26.40
15680;BMP180;15488;48.114;11.532;2023-07-24T02:47:09;94821.00;;;26.40
15680;BMP180;15488;48.114;11.532;2023-07-24T02:49:36;94810.00;;;26.50
15680;BMP180;15488;48.114;11.532;2023-07-24T02:52:04;94794.00;;;26.50
15680;BMP180;15488;48.114;11.532;2023-07-24T02:54:33;94794.00;;;26.50
15680;BMP180;15488;48.114;11.532;2023-07-24T02:57:01;94788.00;;;26.50
15680;BMP180;15488;48.114;11.532;2023-07-24T02:59:29;94800.00;;;26.50
15680;BMP180;15488;48.114;11.532;2023-07-24T03:01:58;94846.00;;;26.50
15680;BMP180;15488;48.114;11.532;2023-07-24T03:04:25;94919.00;;;26.50
15680;BMP180;15488;48.114;11.532;2023-07-24T03:06:53;94999.00;;;26.60
15680;BMP180;15488;48.114;11.532;2023-07-24T03:09:20;95024.00;;;26.50
15680;BMP180;15488;48.114;11.532;2023-07-24T03:11:49;95080.00;;;26.30
15680;BMP180;15488;48.114;11.532;2023-07-24T03:14:17;95050.00;;;26.10
15680;BMP180;15488;48.114;11.532;2023-07-24T03:16:44;95007.00;;;25.90
15680;BMP180;15488;48.114;11.532;2023-07-24T03:19:11;94990.00;;;25.70
15680;BMP180;15488;48.114;11.532;2023-07-24T03:21:39;94983.00;;;25.60
15680;BMP180;15488;48.114;11.532;2023-07-24T03:24:06;94970.00;;;25.60
15680;BMP180;15488;48.114;11.532;2023-07-24T03:26:34;94941.00;;;25.60
15680;BMP180;15488;48.114;11.532;2023-07-24T03:29:04;94906.00;;;25.60
15680;BMP180;15488;48.114;11.532;2023-07-24T03:31:32;94892.00;;;25.60
15680;BMP180;15488;48.114;11.532;2023-07-24T03:33:59;94886.00;;;25.60
15680;BMP180;15488;48.114;11.532;2023-07-24T03:36:27;94866.00;;;25.60
15680;BMP180;15488;48.114;11.532;2023-07-24T03:38:57;94830.00;;;25.60
15680;BMP180;15488;48.114;11.532;2023-07-24T03:41:25;94805.00;;;25.70
15680;BMP180;15488;48.114;11.532;2023-07-24T03:43:52;94788.00;;;25.70
15680;BMP180;15488;48.114;11.532;2023-07-24T03:46:21;94795.00;;;25.60
15680;BMP180;15488;48.114;11.532;2023-07-24T03:48:48;94785.00;;;25.60
15680;BMP180;15488;48.114;11.532;2023-07-24T03:51:16;94788.00;;;25.60
15680;BMP180;15488;48.114;11.532;2023-07-24T03:53:44;94780.00;;;25.60
15680;BMP180;15488;48.114;11.532;2023-07-24T03:56:11;94791.00;;;25.60
15680;BMP180;15488;48.114;11.532;2023-07-24T03:58:39;94775.00;;;25.60
15680;BMP180;15488;48.114;11.532;2023-07-24T04:01:06;94767.00;;;25.60
15680;BMP180;15488;48.114;11.532;2023-07-24T04:03:35;94769.00;;;25.60
15680;BMP180;15488;48.114;11.532;2023-07-24T04:06:03;94769.00;;;25.60
15680;BMP180;15488;48.114;11.532;2023-07-24T04:08:30;94757.00;;;25.60
15680;BMP180;15488;48.114;11.532;2023-07-24T04:10:58;94762.00;;;25.60
15680;BMP180;15488;48.114;11.532;2023-07-24T04:13:25;94753.00;;;25.60
15680;BMP180;15488;48.114;11.532;2023-07-24T04:15:53;94757.00;;;25.60
15680;BMP180;15488;48.114;11.532;2023-07-24T04:18:20;94770.00;;;25.60
15680;BMP180;15488;48.114;11.532;2023-07-24T04:20:49;94760.00;;;25.60
15680;BMP180;15488;48.114;11.532;2023-07-24T04:23:16;94765.00;;;25.60
15680;BMP180;15488;48.114;11.532;2023-07-24T04:25:44;94772.00;;;25.60
15680;BMP180;15488;48.114;11.532;2023-07-24T04:28:11;94794.00;;;25.60
15680;BMP180;15488;48.114;11.532;2023-07-24T04:30:39;94823.00;;;25.60
15680;BMP180;15488;48.114;11.532;2023-07-24T04:33:06;94821.00;;;25.60
15680;BMP180;15488;48.114;11.532;2023-07-24T04:35:34;94819.00;;;25.60
15680;BMP180;15488;48.114;11.532;2023-07-24T04:38:02;94828.00;;;25.60
15680;BMP180;15488;48.114;11.532;2023-07-24T04:40:30;94816.00;;;25.60
15680;BMP180;15488;48.114;11.532;2023-07-24T04:42:57;94803.00;;;25.60
15680;BMP180;15488;48.114;11.532;2023-07-24T04:45:25;94795.00;;;25.60
15680;BMP180;15488;48.114;11.532;2023-07-24T04:47:53;94799.00;;;25.60
15680;BMP180;15488;48.114;11.532;2023-07-24T04:50:20;94792.00;;;25.60
15680;BMP180;15488;48.114;11.532;2023-07-24T04:52:47;94794.00;;;25.60
15680;BMP180;15488;48.114;11.532;2023-07-24T04:55:16;94802.00;;;25.60
15680;BMP180;15488;48.114;11.532;2023-07-24T04:57:44;94809.00;;;25.60
15680;BMP180;15488;48.114;11.532;2023-07-24T05:00:12;94761.00;;;25.60
15680;BMP180;15488;48.114;11.532;2023-07-24T05:02:40;94802.00;;;25.60
15680;BMP180;15488;48.114;11.532;2023-07-24T05:05:08;94800.00;;;25.60
15680;BMP180;15488;48.114;11.532;2023-07-24T05:07:36;94804.00;;;25.70
15680;BMP180;15488;48.114;11.532;2023-07-24T05:10:04;94800.00;;;25.70
15680;BMP180;15488;48.114;11.532;2023-07-24T05:12:33;94815.00;;;25.70
15680;BMP180;15488;48.114;11.532;2023-07-24T05:15:00;94816.00;;;25.70
15680;BMP180;15488;48.114;11.532;2023-07-24T05:17:28;94813.00;;;25.70
15680;BMP180;15488;48.114;11.532;2023-07-24T05:19:56;94803.00;;;25.70
15680;BMP180;15488;48.114;11.532;2023-07-24T05:22:23;94782.00;;;25.70
15680;BMP180;15488;48.114;11.532;2023-07-24T05:24:51;94769.00;;;25.60
15680;BMP180;15488;48.114;11.532;2023-07-24T05:27:18;94784.00;;;25.60
15680;BMP180;15488;48.114;11.532;2023-07-24T05:29:47;94784.00;;;25.60
15680;BMP180;15488;48.114;11.532;2023-07-24T05:32:15;94774.00;;;25.70
15680;BMP180;15488;48.114;11.532;2023-07-24T05:34:42;94764.00;;;25.60
15680;BMP180;15488;48.114;11.532;2023-07-24T05:37:09;94762.00;;;25.70
15680;BMP180;15488;48.114;11.532;2023-07-24T05:39:37;94758.00;;;25.70
15680;BMP180;15488;48.114;11.532;2023-07-24T05:42:05;94764.00;;;25.80
15680;BMP180;15488;48.114;11.532;2023-07-24T05:44:32;94763.00;;;25.80
15680;BMP180;15488;48.114;11.532;2023-07-24T05:47:03;94756.00;;;25.80
15680;BMP180;15488;48.114;11.532;2023-07-24T05:49:31;94749.00;;;25.90
15680;BMP180;15488;48.114;11.532;2023-07-24T05:51:58;94741.00;;;26.00
15680;BMP180;15488;48.114;11.532;2023-07-24T05:54:25;94746.00;;;26.00
15680;BMP180;15488;48.114;11.532;2023-07-24T05:56:53;94733.00;;;26.00
15680;BMP180;15488;48.114;11.532;2023-07-24T05:59:20;94742.00;;;26.00
15680;BMP180;15488;48.114;11.532;2023-07-24T06:01:48;94739.00;;;26.10
15680;BMP180;15488;48.114;11.532;2023-07-24T06:04:17;94727.00;;;26.20
15680;BMP180;15488;48.114;11.532;2023-07-24T06:06:44;94714.00;;;26.30
15680;BMP180;15488;48.114;11.532;2023-07-24T06:09:12;94709.00;;;26.30
15680;BMP180;15488;48.114;11.532;2023-07-24T06:11:39;94701.00;;;26.40
15680;BMP180;15488;48.114;11.532;2023-07-24T06:14:07;94701.00;;;26.40
15680;BMP180;15488;48.114;11.532;2023-07-24T06:16:34;94698.00;;;26.40
15680;BMP180;15488;48.114;11.532;2023-07-24T06:19:01;94708.00;;;26.50
15680;BMP180;15488;48.114;11.532;2023-07-24T06:21:30;94715.00;;;26.50
15680;BMP180;15488;48.114;11.532;2023-07-24T06:23:58;94718.00;;;26.60
15680;BMP180;15488;48.114;11.532;2023-07-24T06:26:25;94714.00;;;26.60
15680;BMP180;15488;48.114;11.532;2023-07-24T06:28:52;94714.00;;;26.70
15680;BMP180;15488;48.114;11.532;2023-07-24T06:31:20;94702.00;;;26.80
15680;BMP180;15488;48.114;11.532;2023-07-24T06:33:47;94685.00;;;26.90
15680;BMP180;15488;48.114;11.532;2023-07-24T06:36:15;94673.00;;;26.90
15680;BMP180;15488;48.114;11.532;2023-07-24T06:38:44;94670.00;;;27.00
15680;BMP180;15488;48.114;11.532;2023-07-24T06:41:13;94673.00;;;27.10
15680;BMP180;15488;48.114;11.532;2023-07-24T06:43:41;94675.00;;;27.10
15680;BMP180;15488;48.114;11.532;2023-07-24T06:46:09;94677.00;;;27.20
15680;BMP180;15488;48.114;11.532;2023-07-24T06:48:36;94689.00;;;27.30
15680;BMP180;15488;48.114;11.532;2023-07-24T06:51:04;94690.00;;;27.40
15680;BMP180;15488;48.114;11.532;2023-07-24T06:53:31;94690.00;;;27.40
15680;BMP180;15488;48.114;11.532;2023-07-24T06:56:00;94696.00;;;27.50
15680;BMP180;15488;48.114;11.532;2023-07-24T06:58:28;94691.00;;;27.60
15680;BMP180;15488;48.114;11.532;2023-07-24T07:00:55;94693.00;;;27.70
15680;BMP180;15488;48.114;11.532;2023-07-24T07:03:23;94697.00;;;27.80
15680;BMP180;15488;48.114;11.532;2023-07-24T07:05:50;94704.00;;;27.90
15680;BMP180;15488;48.114;11.532;2023-07-24T07:08:17;94712.00;;;28.00
15680;BMP180;15488;48.114;11.532;2023-07-24T07:10:45;94725.00;;;28.10
15680;BMP180;15488;48.114;11.532;2023-07-24T07:13:15;94735.00;;;28.20
15680;BMP180;15488;48.114;11.532;2023-07-24T07:15:42;94750.00;;;28.30
15680;BMP180;15488;48.114;11.532;2023-07-24T07:18:10;94765.00;;;28.40
15680;BMP180;15488;48.114;11.532;2023-07-24T07:20:37;94770.00;;;28.40
15680;BMP180;15488;48.114;11.532;2023-07-24T07:23:05;94778.00;;;28.50
15680;BMP180;15488;48.114;11.532;2023-07-24T07:25:32;94792.00;;;28.50
15680;BMP180;15488;48.114;11.532;2023-07-24T07:27:59;94813.00;;;28.60
15680;BMP180;15488;48.114;11.532;2023-07-24T07:30:28;94871.00;;;28.60
15680;BMP180;15488;48.114;11.532;2023-07-24T07:32:56;94919.00;;;28.60
15680;BMP180;15488;48.114;11.532;2023-07-24T07:35:23;94925.00;;;28.50
15680;BMP180;15488;48.114;11.532;2023-07-24T07:37:51;94921.00;;;28.40
15680;BMP180;15488;48.114;11.532;2023-07-24T07:40:19;94918.00;;;28.40
15680;BMP180;15488;48.114;11.532;2023-07-24T07:42:46;94914.00;;;28.20
15680;BMP180;15488;48.114;11.532;2023-07-24T07:45:14;94934.00;;;28.00
15680;BMP180;15488;48.114;11.532;2023-07-24T07:47:42;94935.00;;;27.90
15680;BMP180;15488;48.114;11.532;2023-07-24T07:50:10;94924.00;;;27.90
15680;BMP180;15488;48.114;11.532;2023-07-24T07:52:38;94913.00;;;27.70
15680;BMP180;15488;48.114;11.532;2023-07-24T07:55:06;94918.00;;;27.60
15680;BMP180;15488;48.114;11.532;2023-07-24T07:57:34;94915.00;;;27.50
15680;BMP180;15488;48.114;11.532;2023-07-24T08:00:02;94923.00;;;27.40
15680;BMP180;15488;48.114;11.532;2023-07-24T08:02:30;94918.00;;;27.40
15680;BMP180;15488;48.114;11.532;2023-07-24T08:04:59;94918.00;;;27.30
15680;BMP180;15488;48.114;11.532;2023-07-24T08:07:27;94915.00;;;27.30
15680;BMP180;15488;48.114;11.532;2023-07-24T08:09:54;94899.00;;;27.30
15680;BMP180;15488;48.114;11.532;2023-07-24T08:12:22;94902.00;;;27.20
15680;BMP180;15488;48.114;11.532;2023-07-24T08:14:49;94892.00;;;27.20
15680;BMP180;15488;48.114;11.532;2023-07-24T08:17:17;94895.00;;;27.20
15680;BMP180;15488;48.114;11.532;2023-07-24T08:19:44;94885.00;;;27.10
15680;BMP180;15488;48.114;11.532;2023-07-24T08:22:13;94878.00;;;27.10
15680;BMP180;15488;48.114;11.532;2023-07-24T08:24:41;94855.00;;;27.00
15680;BMP180;15488;48.114;11.532;2023-07-24T08:27:08;94866.00;;;27.00
15680;BMP180;15488;48.114;11.532;2023-07-24T08:29:35;94857.00;;;26.90
15680;BMP180;15488;48.114;11.532;2023-07-24T08:32:04;94854.00;;;26.90
15680;BMP180;15488;48.114;11.532;2023-07-24T08:34:32;94815.00;;;26.90
15680;BMP180;15488;48.114;11.532;2023-07-24T08:36:59;94815.00;;;27.00
15680;BMP180;15488;48.114;11.532;2023-07-24T08:39:28;94820.00;;;27.10
15680;BMP180;15488;48.114;11.532;2023-07-24T08:41:57;94806.00;;;27.20
15680;BMP180;15488;48.114;11.532;2023-07-24T08:44:29;94786.00;;;27.20
15680;BMP180;15488;48.114;11.532;2023-07-24T08:46:57;94773.00;;;27.30
15680;BMP180;15488;48.114;11.532;2023-07-24T08:49:25;94765.00;;;27.40
15680;BMP180;15488;48.114;11.532;2023-07-24T08:51:53;94749.00;;;27.50
15680;BMP180;15488;48.114;11.532;2023-07-24T08:54:21;94752.00;;;27.60
15680;BMP180;15488;48.114;11.532;2023-07-24T08:56:52;94769.00;;;27.50
15680;BMP180;15488;48.114;11.532;2023-07-24T08:59:21;94775.00;;;27.50
15680;BMP180;15488;48.114;11.532;2023-07-24T09:01:48;94776.00;;;27.50
15680;BMP180;15488;48.114;11.532;2023-07-24T09:04:16;94778.00;;;27.50
15680;BMP180;15488;48.114;11.532;2023-07-24T09:06:44;94786.00;;;27.50
15680;BMP180;15488;48.114;11.532;2023-07-24T09:09:16;94780.00;;;27.60
15680;BMP180;15488;48.114;11.532;2023-07-24T09:11:48;94766.00;;;27.60
15680;BMP180;15488;48.114;11.532;2023-07-24T09:14:25;94769.00;;;27.60
15680;BMP180;15488;48.114;11.532;2023-07-24T09:17:03;94771.00;;;27.60
15680;BMP180;15488;48.114;11.532;2023-07-24T09:19:31;94781.00;;;27.60
15680;BMP180;15488;48.114;11.532;2023-07-24T09:22:08;94772.00;;;27.60
15680;BMP180;15488;48.114;11.532;2023-07-24T09:24:36;94753.00;;;27.70
15680;BMP180;15488;48.114;11.532;2023-07-24T09:27:06;94752.00;;;27.80
15680;BMP180;15488;48.114;11.532;2023-07-24T09:29:35;94742.00;;;27.80
15680;BMP180;15488;48.114;11.532;2023-07-24T09:32:03;94736.00;;;28.00
15680;BMP180;15488;48.114;11.532;2023-07-24T09:34:32;94735.00;;;28.10
15680;BMP180;15488;48.114;11.532;2023-07-24T09:36:59;94726.00;;;28.20
15680;BMP180;15488;48.114;11.532;2023-07-24T09:39:27;94712.00;;;28.30
15680;BMP180;15488;48.114;11.532;2023-07-24T09:42:03;94712.00;;;28.40
15680;BMP180;15488;48.114;11.532;2023-07-24T09:44:31;94706.00;;;28.50
15680;BMP180;15488;48.114;11.532;2023-07-24T09:47:02;94712.00;;;28.60
15680;BMP180;15488;48.114;11.532;2023-07-24T09:49:29;94712.00;;;28.70
15680;BMP180;15488;48.114;11.532;2023-07-24T09:51:59;94702.00;;;28.90
15680;BMP180;15488;48.114;11.532;2023-07-24T09:54:29;94699.00;;;29.00
15680;BMP180;15488;48.114;11.532;2023-07-24T09:56:59;94682.00;;;29.20
15680;BMP180;15488;48.114;11.532;2023-07-24T09:59:27;94684.00;;;29.30
15680;BMP180;15488;48.114;11.532;2023-07-24T10:01:56;94688.00;;;29.40
15680;BMP180;15488;48.114;11.532;2023-07-24T10:04:25;94697.00;;;29.50
15680;BMP180;15488;48.114;11.532;2023-07-24T10:06:53;94690.00;;;29.60
15680;BMP180;15488;48.114;11.532;2023-07-24T10:09:21;94679.00;;;29.70
15680;BMP180;15488;48.114;11.532;2023-07-24T10:11:50;94659.00;;;29.80
15680;BMP180;15488;48.114;11.532;2023-07-24T10:14:17;94657.00;;;29.90
15680;BMP180;15488;48.114;11.532;2023-07-24T10:16:45;94658.00;;;30.00
15680;BMP180;15488;48.114;11.532;2023-07-24T10:19:14;94661.00;;;30.20
15680;BMP180;15488;48.114;11.532;2023-07-24T10:21:47;94661.00;;;30.30
15680;BMP180;15488;48.114;11.532;2023-07-24T10:24:15;94649.00;;;30.40
15680;BMP180;15488;48.114;11.532;2023-07-24T10:26:43;94647.00;;;30.50
15680;BMP180;15488;48.114;11.532;2023-07-24T10:29:10;94656.00;;;30.60
15680;BMP180;15488;48.114;11.532;2023-07-24T10:31:39;94665.00;;;30.70
15680;BMP180;15488;48.114;11.532;2023-07-24T10:34:07;94662.00;;;30.80
15680;BMP180;15488;48.114;11.532;2023-07-24T10:36:36;94676.00;;;30.90
15680;BMP180;15488;48.114;11.532;2023-07-24T10:39:13;94670.00;;;31.00
15680;BMP180;15488;48.114;11.532;2023-07-24T10:41:42;94665.00;;;31.00
15680;BMP180;15488;48.114;11.532;2023-07-24T10:44:11;94663.00;;;31.10
15680;BMP180;15488;48.114;11.532;2023-07-24T10:46:39;94658.00;;;31.20
15680;BMP180;15488;48.114;11.532;2023-07-24T10:49:08;94658.00;;;31.30
15680;BMP180;15488;48.114;11.532;2023-07-24T10:51:36;94654.00;;;31.40
15680;BMP180;15488;48.114;11.532;2023-07-24T10:54:06;94653.00;;;31.40
15680;BMP180;15488;48.114;11.532;2023-07-24T10:56:33;94645.00;;;31.50
15680;BMP180;15488;48.114;11.532;2023-07-24T10:59:05;94640.00;;;31.60
15680;BMP180;15488;48.114;11.532;2023-07-24T11:01:33;94632.00;;;31.70
15680;BMP180;15488;48.114;11.532;2023-07-24T11:04:00;94630.00;;;31.70
15680;BMP180;15488;48.114;11.532;2023-07-24T11:06:28;94622.00;;;31.80
15680;BMP180;15488;48.114;11.532;2023-07-24T11:08:57;94620.00;;;31.90
15680;BMP180;15488;48.114;11.532;2023-07-24T11:11:30;94619.00;;;32.00
15680;BMP180;15488;48.114;11.532;2023-07-24T11:13:57;94610.00;;;32.20
15680;BMP180;15488;48.114;11.532;2023-07-24T11:16:28;94612.00;;;32.30
15680;BMP180;15488;48.114;11.532;2023-07-24T11:18:57;94598.00;;;32.40
15680;BMP180;15488;48.114;11.532;2023-07-24T11:21:24;94581.00;;;32.50
15680;BMP180;15488;48.114;11.532;2023-07-24T11:23:53;94575.00;;;32.60
15680;BMP180;15488;48.114;11.532;2023-07-24T11:26:21;94557.00;;;32.70
15680;BMP180;15488;48.114;11.532;2023-07-24T11:28:51;94566.00;;;32.80
15680;BMP180;15488;48.114;11.532;2023-07-24T11:31:19;94569.00;;;32.90
15680;BMP180;15488;48.114;11.532;2023-07-24T11:33:47;94579.00;;;33.00
15680;BMP180;15488;48.114;11.532;2023-07-24T11:36:15;94569.00;;;33.10
15680;BMP180;15488;48.114;11.532;2023-07-24T11:38:45;94571.00;;;33.20
15680;BMP180;15488;48.114;11.532;2023-07-24T11:41:13;94556.00;;;33.40
15680;BMP180;15488;48.114;11.532;2023-07-24T11:43:46;94559.00;;;33.50
15680;BMP180;15488;48.114;11.532;2023-07-24T11:46:24;94565.00;;;33.60
15680;BMP180;15488;48.114;11.532;2023-07-24T11:48:52;94553.00;;;33.60
15680;BMP180;15488;48.114;11.532;2023-07-24T11:51:21;94546.00;;;33.60
15680;BMP180;15488;48.114;11.532;2023-07-24T11:53:51;94548.00;;;33.60
15680;BMP180;15488;48.114;11.532;2023-07-24T11:56:20;94551.00;;;33.60
15680;BMP180;15488;48.114;11.532;2023-07-24T11:58:48;94563.00;;;33.60
15680;BMP180;15488;48.114;11.532;2023-07-24T12:01:16;94568.00;;;33.60
15680;BMP180;15488;48.114;11.532;2023-07-24T12:03:45;94574.00;;;33.50
15680;BMP180;15488;48.114;11.532;2023-07-24T12:06:17;94576.00;;;33.40
15680;BMP180;15488;48.114;11.532;2023-07-24T12:08:46;94571.00;;;33.40
15680;BMP180;15488;48.114;11.532;2023-07-24T12:11:17;94569.00;;;33.40
15680;BMP180;15488;48.114;11.532;2023-07-24T12:13:44;94583.00;;;33.30
15680;BMP180;15488;48.114;11.532;2023-07-24T12:16:12;94614.00;;;33.20
15680;BMP180;15488;48.114;11.532;2023-07-24T12:18:39;94654.00;;;33.10
15680;BMP180;15488;48.114;11.532;2023-07-24T12:21:08;94684.00;;;33.00
15680;BMP180;15488;48.114;11.532;2023-07-24T12:23:35;94723.00;;;32.90
15680;BMP180;15488;48.114;11.532;2023-07-24T12:26:03;94751.00;;;32.60
15680;BMP180;15488;48.114;11.532;2023-07-24T12:28:30;94738.00;;;32.40
15680;BMP180;15488;48.114;11.532;2023-07-24T12:30:58;94735.00;;;32.10
15680;BMP180;15488;48.114;11.532;2023-07-24T12:33:26;94711.00;;;32.00
15680;BMP180;15488;48.114;11.532;2023-07-24T12:35:53;94705.00;;;31.90
15680;BMP180;15488;48.114;11.532;2023-07-24T12:38:22;94698.00;;;31.70
15680;BMP180;15488;48.114;11.532;2023-07-24T12:40:49;94690.00;;;31.60
15680;BMP180;15488;48.114;11.532;2023-07-24T12:43:17;94695.00;;;31.50
15680;BMP180;15488;48.114;11.532;2023-07-24T12:45:44;94692.00;;;31.40
15680;BMP180;15488;48.114;11.532;2023-07-24T12:48:12;94703.00;;;31.30
15680;BMP180;15488;48.114;11.532;2023-07-24T12:50:39;94716.00;;;31.20
15680;BMP180;15488;48.114;11.532;2023-07-24T12:53:07;94708.00;;;31.20
15680;BMP180;15488;48.114;11.532;2023-07-24T12:55:35;94724.00;;;31.10
15680;BMP180;15488;48.114;11.532;2023-07-24T12:58:03;94736.00;;;30.90
15680;BMP180;15488;48.114;11.532;2023-07-24T13:00:30;94735.00;;;30.70
15680;BMP180;15488;48.114;11.532;2023-07-24T13:02:58;94727.00;;;30.60
15680;BMP180;15488;48.114;11.532;2023-07-24T13:05:25;94738.00;;;30.40
15680;BMP180;15488;48.114;11.532;2023-07-24T13:07:53;94728.00;;;30.30
15680;BMP180;15488;48.114;11.532;2023-07-24T13:10:20;94723.00;;;30.20
15680;BMP180;15488;48.114;11.532;2023-07-24T13:12:49;94735.00;;;30.00
15680;BMP180;15488;48.114;11.532;2023-07-24T13:15:16;94721.00;;;29.90
15680;BMP180;15488;48.114;11.532;2023-07-24T13:17:44;94726.00;;;29.80
15680;BMP180;15488;48.114;11.532;2023-07-24T13:20:12;94741.00;;;29.70
15680;BMP180;15488;48.114;11.532;2023-07-24T13:22:39;94725.00;;;29.60
15680;BMP180;15488;48.114;11.532;2023-07-24T13:25:09;94682.00;;;29.50
15680;BMP180;15488;48.114;11.532;2023-07-24T13:27:36;94717.00;;;29.50
15680;BMP180;15488;48.114;11.532;2023-07-24T13:30:06;94717.00;;;29.40
15680;BMP180;15488;48.114;11.532;2023-07-24T13:32:34;94662.00;;;29.40
15680;BMP180;15488;48.114;11.532;2023-07-24T13:35:01;94654.00;;;29.40
15680;BMP180;15488;48.114;11.532;2023-07-24T13:37:28;94671.00;;;29.40
15680;BMP180;15488;48.114;11.532;2023-07-24T13:39:56;94678.00;;;29.40
15680;BMP180;15488;48.114;11.532;2023-07-24T13:42:23;94650.00;;;29.50
15680;BMP180;15488;48.114;11.532;2023-07-24T13:44:51;94652.00;;;29.50
15680;BMP180;15488;48.114;11.532;2023-07-24T13:47:20;94643.00;;;29.50
15680;BMP180;15488;48.114;11.532;2023-07-24T13:49:48;94656.00;;;29.60
15680;BMP180;15488;48.114;11.532;2023-07-24T13:52:16;94656.00;;;29.60
15680;BMP180;15488;48.114;11.532;2023-07-24T13:54:43;94645.00;;;29.60
15680;BMP180;15488;48.114;11.532;2023-07-24T13:57:12;94655.00;;;29.70
15680;BMP180;15488;48.114;11.532;2023-07-24T13:59:39;94651.00;;;29.70
15680;BMP180;15488;48.114;11.532;2023-07-24T14:02:09;94636.00;;;29.80